createdAt,value
2018-09-29T00:01:24.470Z,99567.19
2018-09-29T00:03:52.235Z,99566.58
2018-09-29T00:06:20.031Z,99563.70
2018-09-29T00:08:47.795Z,99561.27
2018-09-29T00:11:15.576Z,99556.61
2018-09-29T00:13:43.306Z,99550.68
2018-09-29T00:16:11.102Z,99551.91
2018-09-29T00:18:38.827Z,99552.09
2018-09-29T00:21:06.566Z,99550.55
2018-09-29T00:23:34.298Z,99558.09
2018-09-29T00:26:02.063Z,99557.58
2018-09-29T00:28:29.871Z,99550.48
2018-09-29T00:30:57.655Z,99552.29
2018-09-29T00:33:25.466Z,99544.68
2018-09-29T00:35:53.243Z,99546.35
2018-09-29T00:38:21.014Z,99538.58
2018-09-29T00:40:48.678Z,99548.41
2018-09-29T00:43:16.458Z,99543.92
2018-09-29T00:45:44.226Z,99544.69
2018-09-29T00:48:12.179Z,99534.47
2018-09-29T00:50:39.922Z,99530.30
2018-09-29T00:53:07.799Z,99534.39
2018-09-29T00:55:35.511Z,99532.27
2018-09-29T00:58:03.219Z,99523.98
2018-09-29T01:00:30.930Z,99529.91
2018-09-29T01:02:58.754Z,99526.77
2018-09-29T01:05:26.566Z,99526.59
2018-09-29T01:07:54.407Z,99520.71
2018-09-29T01:10:22.164Z,99519.48
2018-09-29T01:12:49.951Z,99520.17
2018-09-29T01:15:17.702Z,99516.95
2018-09-29T01:17:45.381Z,99514.33
2018-09-29T01:20:13.099Z,99503.88
2018-09-29T01:22:40.951Z,99508.33
2018-09-29T01:25:08.822Z,99503.73
2018-09-29T01:27:36.580Z,99504.63
2018-09-29T01:30:04.390Z,99506.13
2018-09-29T01:32:32.219Z,99509.78
2018-09-29T01:35:00.056Z,99508.42
2018-09-29T01:37:27.788Z,99511.11
2018-09-29T01:39:55.583Z,99510.55
2018-09-29T01:42:23.366Z,99512.27
2018-09-29T01:44:51.147Z,99516.08
2018-09-29T01:47:18.862Z,99520.03
2018-09-29T01:49:46.605Z,99523.98
2018-09-29T01:52:14.370Z,99527.23
2018-09-29T01:54:42.138Z,99525.27
2018-09-29T01:57:09.922Z,99518.34
2018-09-29T01:59:37.733Z,99527.39
2018-09-29T02:02:05.500Z,99526.36
2018-09-29T02:04:33.854Z,99525.88
2018-09-29T02:07:01.636Z,99521.94
2018-09-29T02:09:29.352Z,99521.83
2018-09-29T02:11:57.122Z,99516.81
2018-09-29T02:14:24.909Z,99515.18
2018-09-29T02:16:52.631Z,99512.48
2018-09-29T02:19:20.414Z,99512.60
2018-09-29T02:21:48.178Z,99519.03
2018-09-29T02:24:15.896Z,99521.96
2018-09-29T02:26:43.642Z,99516.84
2018-09-29T02:29:11.486Z,99514.69
2018-09-29T02:31:39.179Z,99518.07
2018-09-29T02:34:06.977Z,99527.47
2018-09-29T02:36:34.800Z,99528.83
2018-09-29T02:39:02.648Z,99531.53
2018-09-29T02:41:30.400Z,99529.23
2018-09-29T02:43:58.162Z,99520.20
2018-09-29T02:46:25.940Z,99516.45
2018-09-29T02:48:53.720Z,99516.77
2018-09-29T02:51:22.613Z,99516.34
2018-09-29T02:53:50.309Z,99511.98
2018-09-29T02:56:18.082Z,99510.52
2018-09-29T02:58:45.931Z,99511.48
2018-09-29T03:01:13.711Z,99511.88
2018-09-29T03:03:41.483Z,99511.48
2018-09-29T03:06:09.406Z,99511.15
2018-09-29T03:08:37.200Z,99502.41
2018-09-29T03:11:04.962Z,99501.17
2018-09-29T03:13:32.761Z,99513.11
2018-09-29T03:16:00.509Z,99519.02
2018-09-29T03:18:28.294Z,99517.31
2018-09-29T03:20:56.134Z,99521.34
2018-09-29T03:23:23.863Z,99528.91
2018-09-29T03:25:51.574Z,99521.28
2018-09-29T03:28:19.335Z,99521.39
2018-09-29T03:30:47.095Z,99520.02
2018-09-29T03:33:14.803Z,99514.64
2018-09-29T03:35:42.634Z,99519.32
2018-09-29T03:38:10.431Z,99515.79
2018-09-29T03:40:38.262Z,99517.55
2018-09-29T03:43:06.130Z,99516.69
2018-09-29T03:45:33.841Z,99518.58
2018-09-29T03:48:01.591Z,99522.39
2018-09-29T03:50:29.407Z,99517.95
2018-09-29T03:52:57.101Z,99519.99
2018-09-29T03:55:24.843Z,99518.25
2018-09-29T03:57:52.622Z,99509.27
2018-09-29T04:00:20.463Z,99508.34
2018-09-29T04:02:48.238Z,99509.72
2018-09-29T04:05:16.016Z,99506.48
2018-09-29T04:07:43.927Z,99518.53
2018-09-29T04:10:11.818Z,99516.75
2018-09-29T04:12:39.651Z,99513.42
2018-09-29T04:15:07.840Z,99520.58
2018-09-29T04:17:35.645Z,99512.70
2018-09-29T04:20:03.564Z,99506.80
2018-09-29T04:22:31.326Z,99504.30
2018-09-29T04:24:59.124Z,99498.50
2018-09-29T04:27:26.931Z,99493.22
2018-09-29T04:29:54.879Z,99489.17
2018-09-29T04:32:22.623Z,99497.95
2018-09-29T04:34:50.429Z,99500.04
2018-09-29T04:37:18.207Z,99491.93
2018-09-29T04:39:45.950Z,99498.03
2018-09-29T04:42:13.731Z,99499.27
2018-09-29T04:44:41.486Z,99498.66
2018-09-29T04:47:09.246Z,99504.72
2018-09-29T04:49:37.090Z,99511.03
2018-09-29T04:52:04.862Z,99508.14
2018-09-29T04:54:32.534Z,99510.30
2018-09-29T04:57:00.299Z,99507.70
2018-09-29T04:59:28.043Z,99516.26
2018-09-29T05:01:55.776Z,99515.53
2018-09-29T05:04:23.619Z,99517.90
2018-09-29T05:06:51.383Z,99515.72
2018-09-29T05:09:19.159Z,99517.06
2018-09-29T05:11:46.978Z,99509.28
2018-09-29T05:14:14.719Z,99508.54
2018-09-29T05:16:42.507Z,99512.52
2018-09-29T05:19:10.391Z,99513.31
2018-09-29T05:21:38.146Z,99508.73
2018-09-29T05:24:06.010Z,99508.10
2018-09-29T05:26:33.778Z,99507.29
2018-09-29T05:29:01.511Z,99508.20
2018-09-29T05:31:29.329Z,99503.27
2018-09-29T05:33:57.142Z,99500.34
2018-09-29T05:36:24.975Z,99494.16
2018-09-29T05:38:52.747Z,99496.42
2018-09-29T05:41:20.495Z,99490.81
2018-09-29T05:43:48.235Z,99505.27
2018-09-29T05:46:15.967Z,99503.41
2018-09-29T05:48:43.709Z,99499.99
2018-09-29T05:51:17.036Z,99495.22
2018-09-29T05:53:44.884Z,99498.57
2018-09-29T05:56:12.672Z,99500.64
2018-09-29T05:58:40.467Z,99493.38
2018-09-29T06:01:08.267Z,99500.13
2018-09-29T06:03:36.104Z,99505.64
2018-09-29T06:06:03.943Z,99506.86
2018-09-29T06:08:31.702Z,99513.33
2018-09-29T06:10:59.596Z,99513.80
2018-09-29T06:13:27.311Z,99520.58
2018-09-29T06:15:55.132Z,99512.68
2018-09-29T06:18:22.915Z,99516.92
2018-09-29T06:20:50.709Z,99520.91
2018-09-29T06:23:18.479Z,99530.70
2018-09-29T06:25:46.223Z,99535.22
2018-09-29T06:28:13.986Z,99539.38
2018-09-29T06:30:41.831Z,99543.46
2018-09-29T06:33:09.843Z,99545.00
2018-09-29T06:35:37.694Z,99544.86
2018-09-29T06:38:05.531Z,99551.13
2018-09-29T06:40:33.237Z,99547.71
2018-09-29T06:43:01.028Z,99544.48
2018-09-29T06:45:28.840Z,99533.98
2018-09-29T06:47:56.615Z,99533.23
2018-09-29T06:50:24.439Z,99534.61
2018-09-29T06:52:52.209Z,99538.41
2018-09-29T06:55:19.906Z,99538.02
2018-09-29T06:57:47.620Z,99530.60
2018-09-29T07:00:15.383Z,99533.42
2018-09-29T07:02:43.115Z,99534.22
2018-09-29T07:05:10.931Z,99538.73
2018-09-29T07:07:38.761Z,99537.38
2018-09-29T07:10:06.598Z,99543.70
2018-09-29T07:12:34.526Z,99546.08
2018-09-29T07:15:02.422Z,99546.76
2018-09-29T07:17:30.211Z,99553.05
2018-09-29T07:19:58.010Z,99548.77
2018-09-29T07:22:26.673Z,99555.31
2018-09-29T07:24:54.664Z,99559.77
2018-09-29T07:27:22.460Z,99545.34
2018-09-29T07:29:50.279Z,99546.14
2018-09-29T07:32:18.074Z,99542.50
2018-09-29T07:34:45.856Z,99548.89
2018-09-29T07:37:13.715Z,99547.66
2018-09-29T07:39:41.495Z,99531.11
2018-09-29T07:42:09.293Z,99537.02
2018-09-29T07:44:37.152Z,99531.46
2018-09-29T07:47:05.267Z,99524.91
2018-09-29T07:49:33.072Z,99528.93
2018-09-29T07:52:00.919Z,99533.33
2018-09-29T07:54:28.716Z,99526.39
2018-09-29T07:56:56.559Z,99518.50
2018-09-29T07:59:24.740Z,99523.05
2018-09-29T08:01:52.547Z,99533.56
2018-09-29T08:04:20.351Z,99527.97
2018-09-29T08:06:48.177Z,99530.93
2018-09-29T08:09:16.052Z,99530.13
2018-09-29T08:11:43.850Z,99539.40
2018-09-29T08:14:11.814Z,99537.94
2018-09-29T08:16:39.602Z,99541.19
2018-09-29T08:19:07.391Z,99544.33
2018-09-29T08:21:35.248Z,99549.45
2018-09-29T08:24:02.998Z,99554.48
2018-09-29T08:26:30.747Z,99547.69
2018-09-29T08:28:58.570Z,99539.59
2018-09-29T08:31:26.383Z,99543.56
2018-09-29T08:33:54.164Z,99549.70
2018-09-29T08:36:21.998Z,99539.68
2018-09-29T08:38:49.786Z,99541.56
2018-09-29T08:41:17.519Z,99540.27
2018-09-29T08:43:45.345Z,99539.67
2018-09-29T08:46:13.184Z,99537.92
2018-09-29T08:48:40.991Z,99538.42
2018-09-29T08:51:08.912Z,99540.50
2018-09-29T08:53:36.692Z,99545.01
2018-09-29T08:56:04.469Z,99531.64
2018-09-29T08:58:32.307Z,99530.48
2018-09-29T09:01:00.125Z,99524.83
2018-09-29T09:03:27.899Z,99524.52
2018-09-29T09:05:55.683Z,99518.65
2018-09-29T09:08:23.400Z,99521.48
2018-09-29T09:10:51.171Z,99520.08
2018-09-29T09:13:18.939Z,99525.52
2018-09-29T09:15:46.827Z,99522.08
2018-09-29T09:18:14.553Z,99512.89
2018-09-29T09:20:42.371Z,99513.97
2018-09-29T09:23:10.101Z,99511.02
2018-09-29T09:25:37.899Z,99523.69
2018-09-29T09:28:05.895Z,99519.84
2018-09-29T09:30:33.688Z,99518.73
2018-09-29T09:33:01.442Z,99525.56
2018-09-29T09:35:29.263Z,99527.81
2018-09-29T09:37:57.063Z,99519.22
2018-09-29T09:40:24.849Z,99521.03
2018-09-29T09:42:52.632Z,99509.39
2018-09-29T09:45:20.524Z,99511.75
2018-09-29T09:47:48.282Z,99521.73
2018-09-29T09:50:16.103Z,99519.94
2018-09-29T09:52:43.849Z,99535.27
2018-09-29T09:55:11.630Z,99533.25
2018-09-29T09:57:39.482Z,99533.30
2018-09-29T10:00:07.374Z,99537.70
2018-09-29T10:02:40.668Z,99530.61
2018-09-29T10:05:08.456Z,99526.75
2018-09-29T10:07:36.212Z,99527.67
2018-09-29T10:10:04.220Z,99523.27
2018-09-29T10:12:32.099Z,99522.55
2018-09-29T10:14:59.863Z,99526.38
2018-09-29T10:17:27.928Z,99523.25
2018-09-29T10:19:55.704Z,99518.00
2018-09-29T10:22:23.468Z,99518.00
2018-09-29T10:24:51.336Z,99519.49
2018-09-29T10:27:19.057Z,99527.87
2018-09-29T10:29:46.828Z,99514.94
2018-09-29T10:32:14.620Z,99511.84
2018-09-29T10:34:42.351Z,99515.53
2018-09-29T10:37:10.179Z,99519.55
2018-09-29T10:39:38.019Z,99518.39
2018-09-29T10:42:05.807Z,99516.85
2018-09-29T10:44:33.605Z,99516.42
2018-09-29T10:47:01.383Z,99510.63
2018-09-29T10:49:29.119Z,99503.73
2018-09-29T10:51:56.846Z,99500.22
2018-09-29T10:54:24.694Z,99497.50
2018-09-29T10:56:52.419Z,99490.44
2018-09-29T10:59:20.220Z,99487.22
2018-09-29T11:01:48.187Z,99485.45
2018-09-29T11:04:15.962Z,99479.77
2018-09-29T11:06:43.782Z,99476.37
2018-09-29T11:09:11.952Z,99473.47
2018-09-29T11:11:39.870Z,99482.15
2018-09-29T11:14:07.860Z,99475.84
2018-09-29T11:16:35.672Z,99479.83
2018-09-29T11:19:03.636Z,99469.30
2018-09-29T11:21:31.524Z,99466.05
2018-09-29T11:23:59.387Z,99465.81
2018-09-29T11:26:27.107Z,99464.45
2018-09-29T11:28:54.887Z,99462.86
2018-09-29T11:31:22.702Z,99465.80
2018-09-29T11:33:50.464Z,99465.00
2018-09-29T11:36:18.270Z,99459.23
2018-09-29T11:38:46.039Z,99461.19
2018-09-29T11:41:13.739Z,99455.20
2018-09-29T11:43:41.604Z,99461.14
2018-09-29T11:46:09.496Z,99452.21
2018-09-29T11:48:37.279Z,99453.91
2018-09-29T11:51:05.291Z,99449.34
2018-09-29T11:53:33.071Z,99444.58
2018-09-29T11:56:00.933Z,99458.46
2018-09-29T11:58:28.703Z,99461.36
2018-09-29T12:00:56.492Z,99443.95
2018-09-29T12:03:24.256Z,99431.79
2018-09-29T12:05:52.021Z,99436.14
2018-09-29T12:08:19.803Z,99436.18
2018-09-29T12:10:47.489Z,99434.41
2018-09-29T12:13:15.267Z,99434.31
2018-09-29T12:15:43.078Z,99441.83
2018-09-29T12:18:10.894Z,99438.88
2018-09-29T12:20:38.824Z,99429.97
2018-09-29T12:23:06.641Z,99431.85
2018-09-29T12:25:34.393Z,99424.75
2018-09-29T12:28:02.198Z,99425.89
2018-09-29T12:30:29.947Z,99419.23
2018-09-29T12:32:57.740Z,99422.39
2018-09-29T12:35:25.499Z,99421.30
2018-09-29T12:37:53.445Z,99420.56
2018-09-29T12:40:21.111Z,99423.03
2018-09-29T12:42:48.883Z,99418.61
2018-09-29T12:45:16.747Z,99421.91
2018-09-29T12:47:44.532Z,99420.78
2018-09-29T12:50:12.365Z,99423.20
2018-09-29T12:52:40.091Z,99418.62
2018-09-29T12:55:07.920Z,99419.48
2018-09-29T12:57:35.679Z,99417.69
2018-09-29T13:00:03.668Z,99411.23
2018-09-29T13:02:31.522Z,99412.50
2018-09-29T13:04:59.352Z,99408.11
2018-09-29T13:07:27.199Z,99401.38
2018-09-29T13:09:55.005Z,99413.87
2018-09-29T13:12:22.829Z,99411.00
2018-09-29T13:14:50.612Z,99409.01
2018-09-29T13:17:18.395Z,99414.34
2018-09-29T13:19:46.140Z,99414.78
2018-09-29T13:22:14.106Z,99412.49
2018-09-29T13:24:41.956Z,99414.30
2018-09-29T13:27:09.666Z,99414.81
2018-09-29T13:29:37.524Z,99419.31
2018-09-29T13:32:05.315Z,99419.98
2018-09-29T13:34:33.113Z,99421.84
2018-09-29T13:37:00.937Z,99417.77
2018-09-29T13:39:28.686Z,99414.48
2018-09-29T13:41:56.459Z,99416.02
2018-09-29T13:44:24.207Z,99414.20
2018-09-29T13:46:51.977Z,99410.55
2018-09-29T13:49:19.767Z,99424.42
2018-09-29T13:51:47.639Z,99422.16
2018-09-29T13:54:15.567Z,99426.70
2018-09-29T13:56:43.331Z,99422.05
2018-09-29T13:59:11.132Z,99421.45
2018-09-29T14:01:38.952Z,99419.48
2018-09-29T14:04:06.797Z,99430.88
2018-09-29T14:06:34.584Z,99431.77
2018-09-29T14:09:02.448Z,99419.81
2018-09-29T14:11:30.181Z,99422.73
2018-09-29T14:13:58.002Z,99434.43
2018-09-29T14:16:25.768Z,99431.77
2018-09-29T14:18:53.546Z,99429.61
2018-09-29T14:21:21.359Z,99426.62
2018-09-29T14:23:49.201Z,99424.58
2018-09-29T14:26:16.954Z,99422.73
2018-09-29T14:28:44.755Z,99427.98
2018-09-29T14:31:12.494Z,99432.70
2018-09-29T14:33:40.308Z,99437.56
2018-09-29T14:36:08.158Z,99439.73
2018-09-29T14:38:36.151Z,99437.51
2018-09-29T14:41:03.908Z,99434.72
2018-09-29T14:43:31.732Z,99439.00
2018-09-29T14:45:59.556Z,99439.98
2018-09-29T14:48:27.336Z,99437.66
2018-09-29T14:50:55.055Z,99444.58
2018-09-29T14:53:22.837Z,99449.10
2018-09-29T14:55:50.588Z,99458.02
2018-09-29T14:58:18.375Z,99459.73
2018-09-29T15:00:46.164Z,99455.31
2018-09-29T15:03:13.896Z,99456.72
2018-09-29T15:05:41.648Z,99466.06
2018-09-29T15:08:09.446Z,99472.50
2018-09-29T15:10:37.152Z,99472.68
2018-09-29T15:13:05.292Z,99473.97
2018-09-29T15:15:33.088Z,99478.34
2018-09-29T15:18:00.835Z,99472.80
2018-09-29T15:20:28.686Z,99475.14
2018-09-29T15:22:56.467Z,99471.20
2018-09-29T15:25:24.399Z,99466.00
2018-09-29T15:27:52.221Z,99464.09
2018-09-29T15:30:20.058Z,99470.25
2018-09-29T15:32:47.829Z,99472.00
2018-09-29T15:35:15.576Z,99475.29
2018-09-29T15:37:43.338Z,99476.94
2018-09-29T15:40:11.192Z,99481.92
2018-09-29T15:42:39.090Z,99484.37
2018-09-29T15:45:07.899Z,99487.64
2018-09-29T15:47:35.658Z,99489.17
2018-09-29T15:50:03.568Z,99490.23
2018-09-29T15:52:31.287Z,99491.28
2018-09-29T15:54:59.110Z,99493.72
2018-09-29T15:57:26.972Z,99492.59
2018-09-29T15:59:54.702Z,99502.50
2018-09-29T16:02:22.591Z,99501.36
2018-09-29T16:04:50.430Z,99499.98
2018-09-29T16:07:18.224Z,99502.95
2018-09-29T16:09:46.032Z,99506.72
2018-09-29T16:12:14.727Z,99514.69
2018-09-29T16:17:09.584Z,99512.45
2018-09-29T16:19:37.408Z,99513.15
2018-09-29T16:22:05.129Z,99511.47
2018-09-29T16:24:32.903Z,99518.27
2018-09-29T16:27:00.901Z,99528.59
2018-09-29T16:29:28.732Z,99534.53
2018-09-29T16:31:56.545Z,99541.81
2018-09-29T16:34:24.339Z,99539.25
2018-09-29T16:36:52.062Z,99539.09
2018-09-29T16:39:19.909Z,99541.61
2018-09-29T16:41:47.755Z,99553.45
2018-09-29T16:44:15.492Z,99551.09
2018-09-29T16:46:43.307Z,99555.73
2018-09-29T16:49:11.090Z,99562.41
2018-09-29T16:51:38.844Z,99560.08
2018-09-29T16:54:06.596Z,99561.45
2018-09-29T16:56:34.723Z,99573.31
2018-09-29T16:59:02.619Z,99578.28
2018-09-29T17:01:30.450Z,99582.88
2018-09-29T17:03:58.391Z,99593.76
2018-09-29T17:06:26.189Z,99598.27
2018-09-29T17:08:54.088Z,99601.27
2018-09-29T17:11:21.843Z,99601.69
2018-09-29T17:13:49.623Z,99609.59
2018-09-29T17:16:17.461Z,99609.89
2018-09-29T17:18:45.335Z,99604.91
2018-09-29T17:21:13.109Z,99614.60
2018-09-29T17:23:40.976Z,99614.35
2018-09-29T17:26:08.804Z,99622.79
2018-09-29T17:28:36.871Z,99637.85
2018-09-29T17:31:04.668Z,99637.80
2018-09-29T17:33:32.812Z,99646.73
2018-09-29T17:36:00.874Z,99647.43
2018-09-29T17:38:29.058Z,99657.84
2018-09-29T17:40:56.863Z,99661.55
2018-09-29T17:43:24.614Z,99665.36
2018-09-29T17:45:52.380Z,99666.14
2018-09-29T17:48:20.206Z,99673.64
2018-09-29T17:50:48.017Z,99677.15
2018-09-29T17:53:15.781Z,99698.26
2018-09-29T17:55:43.595Z,99696.84
2018-09-29T17:58:11.328Z,99699.23
2018-09-29T18:00:39.121Z,99699.42
2018-09-29T18:03:07.014Z,99713.66
2018-09-29T18:05:35.233Z,99718.92
2018-09-29T18:08:03.479Z,99724.81
2018-09-29T18:10:32.061Z,99735.83
2018-09-29T18:12:59.851Z,99742.72
2018-09-29T18:15:27.656Z,99750.70
2018-09-29T18:17:55.656Z,99760.20
2018-09-29T18:20:23.440Z,99768.31
2018-09-29T18:22:51.580Z,99783.38
2018-09-29T18:25:19.893Z,99785.10
2018-09-29T18:27:47.723Z,99788.88
2018-09-29T18:30:15.752Z,99792.27
2018-09-29T18:32:43.526Z,99799.09
2018-09-29T18:35:11.276Z,99808.38
2018-09-29T18:37:39.153Z,99819.23
2018-09-29T18:40:07.269Z,99822.58
2018-09-29T18:42:35.044Z,99831.63
2018-09-29T18:45:02.874Z,99848.38
2018-09-29T18:47:31.472Z,99849.91
2018-09-29T18:49:59.709Z,99852.84
2018-09-29T18:52:28.283Z,99856.20
2018-09-29T18:54:56.163Z,99861.91
2018-09-29T18:57:24.372Z,99868.48
2018-09-29T18:59:52.698Z,99884.20
2018-09-29T19:02:20.520Z,99899.78
2018-09-29T19:04:48.319Z,99905.73
2018-09-29T19:07:16.120Z,99915.36
2018-09-29T19:09:44.064Z,99912.23
2018-09-29T19:12:11.858Z,99920.89
2018-09-29T19:14:39.776Z,99931.66
2018-09-29T19:17:07.696Z,99937.30
2018-09-29T19:19:35.655Z,99935.95
2018-09-29T19:22:03.550Z,99933.64
2018-09-29T19:24:31.374Z,99948.05
2018-09-29T19:26:59.196Z,99951.30
2018-09-29T19:29:27.013Z,99947.11
2018-09-29T19:31:54.848Z,99945.66
2018-09-29T19:34:22.677Z,99956.51
2018-09-29T19:36:50.509Z,99956.33
2018-09-29T19:39:18.298Z,99956.33
2018-09-29T19:41:46.138Z,99960.80
2018-09-29T19:44:13.900Z,99960.06
2018-09-29T19:46:41.879Z,99968.20
2018-09-29T19:49:09.739Z,99966.02
2018-09-29T19:51:37.530Z,99964.45
2018-09-29T19:54:05.401Z,99966.55
2018-09-29T19:56:33.196Z,99970.16
2018-09-29T19:59:00.947Z,99972.34
2018-09-29T20:01:28.707Z,99982.96
2018-09-29T20:03:56.459Z,99976.19
2018-09-29T20:06:24.216Z,99972.03
2018-09-29T20:08:52.052Z,99973.46
2018-09-29T20:11:19.859Z,99979.16
2018-09-29T20:13:47.632Z,99979.15
2018-09-29T20:16:15.402Z,99984.38
2018-09-29T20:18:43.194Z,99980.42
2018-09-29T20:21:10.934Z,99984.27
2018-09-29T20:23:38.744Z,99995.61
2018-09-29T20:26:06.532Z,99992.42
2018-09-29T20:28:34.371Z,100005.91
2018-09-29T20:31:02.189Z,100003.07
2018-09-29T20:33:30.053Z,100001.48
2018-09-29T20:35:57.792Z,100003.01
2018-09-29T20:39:31.109Z,100016.75
2018-09-29T20:41:58.976Z,100018.70
2018-09-29T20:44:26.747Z,100020.31
2018-09-29T20:46:54.555Z,100031.73
2018-09-29T20:49:22.353Z,100028.84
2018-09-29T20:51:50.058Z,100028.47
2018-09-29T20:54:17.841Z,100024.84
2018-09-29T20:56:45.575Z,100026.40
2018-09-29T20:59:13.372Z,100033.03
2018-09-29T21:01:41.111Z,100036.04
2018-09-29T21:04:08.864Z,100039.66
2018-09-29T21:06:36.619Z,100036.00
2018-09-29T21:09:06.655Z,100038.01
2018-09-29T21:11:34.432Z,100038.03
2018-09-29T21:14:02.226Z,100036.25
2018-09-29T21:16:30.039Z,100051.42
2018-09-29T21:18:57.758Z,100042.58
2018-09-29T21:21:25.491Z,100053.70
2018-09-29T21:23:53.344Z,100058.52
2018-09-29T21:26:21.067Z,100056.78
2018-09-29T21:28:48.786Z,100063.02
2018-09-29T21:31:16.575Z,100064.88
2018-09-29T21:33:44.544Z,100065.15
2018-09-29T21:36:12.296Z,100065.21
2018-09-29T21:38:40.122Z,100070.70
2018-09-29T21:41:07.973Z,100059.59
2018-09-29T21:43:35.740Z,100074.34
2018-09-29T21:46:03.576Z,100070.84
2018-09-29T21:48:31.413Z,100072.07
2018-09-29T21:51:00.978Z,100079.55
2018-09-29T21:53:28.943Z,100076.93
2018-09-29T21:55:56.724Z,100077.48
2018-09-29T21:58:24.497Z,100062.69
2018-09-29T22:00:52.275Z,100059.45
2018-09-29T22:03:20.011Z,100061.69
2018-09-29T22:05:47.835Z,100055.53
2018-09-29T22:08:15.642Z,100074.78
2018-09-29T22:10:43.871Z,100084.72
2018-09-29T22:13:11.567Z,100080.61
2018-09-29T22:15:39.344Z,100086.23
2018-09-29T22:18:07.183Z,100085.31
2018-09-29T22:20:34.970Z,100089.62
2018-09-29T22:23:02.712Z,100092.63
2018-09-29T22:25:30.534Z,100094.95
2018-09-29T22:27:58.320Z,100099.66
2018-09-29T22:30:26.112Z,100101.26
2018-09-29T22:32:53.935Z,100111.16
2018-09-29T22:35:21.808Z,100120.50
2018-09-29T22:37:49.604Z,100122.61
2018-09-29T22:40:17.386Z,100125.15
2018-09-29T22:42:45.138Z,100126.72
2018-09-29T22:45:12.988Z,100131.16
2018-09-29T22:47:40.771Z,100131.41
2018-09-29T22:50:08.672Z,100137.00
2018-09-29T22:52:36.379Z,100140.25
2018-09-29T22:55:04.244Z,100141.40
2018-09-29T22:57:32.038Z,100134.25
2018-09-29T22:59:59.877Z,100135.17
2018-09-29T23:02:27.619Z,100137.47
2018-09-29T23:04:55.664Z,100136.13
2018-09-29T23:07:23.448Z,100136.28
2018-09-29T23:09:51.157Z,100137.05
2018-09-29T23:12:18.898Z,100145.89
2018-09-29T23:14:46.664Z,100150.23
2018-09-29T23:17:14.413Z,100151.12
2018-09-29T23:19:42.360Z,100150.88
2018-09-29T23:22:10.100Z,100135.69
2018-09-29T23:24:37.881Z,100140.11
2018-09-29T23:27:05.658Z,100144.84
2018-09-29T23:29:33.460Z,100147.66
2018-09-29T23:32:01.255Z,100148.01
2018-09-29T23:34:28.987Z,100146.73
2018-09-29T23:36:56.879Z,100151.70
2018-09-29T23:39:24.612Z,100154.28
2018-09-29T23:41:52.407Z,100149.83
2018-09-29T23:44:20.201Z,100145.33
2018-09-29T23:46:47.982Z,100133.83
2018-09-29T23:49:15.746Z,100143.77
2018-09-29T23:51:43.544Z,100150.30
2018-09-29T23:54:11.235Z,100157.09
2018-09-29T23:56:38.903Z,100160.28
2018-09-29T23:59:06.718Z,100162.44
